< Typhoon 197008 1970 Season Typhoon 197010 >
Typhoon 197009 (WILDA)
General InformationTrack Information on Google Maps || NewsDisaster Info.ResourceGoogle EarthGE AnimationAtom FeedGeoJSON
Detalied Best Track (Time Zone = UTC)
Year Month Day Hour Lat. Long. Pressure (hPa) Wind (kt) Class Image Chart
1970 8 9 00 21.0 133.0 1002 0 2 -- Chart
1970 8 9 06 22.7 131.5 985 0 9 -- Chart
1970 8 9 12 22.4 130.3 980 0 9 -- Chart
1970 8 9 18 22.0 129.8 980 0 9 -- Chart
1970 8 10 00 21.6 129.4 975 0 9 -- Chart
1970 8 10 06 21.8 129.4 975 0 9 -- Chart
1970 8 10 12 22.0 129.4 970 0 9 -- Chart
1970 8 10 18 22.3 129.2 970 0 9 -- Chart
1970 8 11 00 22.7 129.0 965 0 9 -- Chart
1970 8 11 06 23.3 129.0 960 0 9 -- Chart
1970 8 11 12 23.9 128.9 955 0 9 -- Chart
1970 8 11 18 24.5 128.8 950 0 9 -- Chart
1970 8 12 00 24.9 128.8 950 0 9 -- Chart
1970 8 12 06 25.5 129.0 950 0 9 -- Chart
1970 8 12 12 26.0 129.0 950 0 9 -- Chart
1970 8 12 18 26.6 129.0 950 0 9 -- Chart
1970 8 13 00 27.1 129.0 945 0 9 -- Chart
1970 8 13 06 28.0 129.0 945 0 9 -- Chart
1970 8 13 12 28.6 129.0 940 0 9 -- Chart
1970 8 13 18 29.5 128.8 940 0 9 -- Chart
1970 8 14 00 30.5 128.6 945 0 9 -- Chart
1970 8 14 06 31.4 129.0 945 0 9 -- Chart
1970 8 14 12 32.4 129.6 945 0 9 -- Chart
1970 8 14 18 33.6 130.7 970 0 9 -- Chart
1970 8 15 00 35.7 132.2 982 0 9 -- Chart
1970 8 15 06 37.7 134.5 980 0 9 -- Chart
1970 8 15 12 40.1 137.1 975 0 9 -- Chart
1970 8 15 18 42.4 139.7 975 0 9 -- Chart
1970 8 16 00 43.9 140.5 975 0 6 -- Chart
1970 8 16 06 45.0 142.0 984 0 6 -- Chart
1970 8 16 12 46.3 144.4 988 0 6 -- Chart
1970 8 16 18 47.7 146.7 988 0 6 -- Chart
1970 8 17 00 49.1 149.0 994 0 6 -- Chart
1970 8 17 06 50.4 151.0 994 0 6 -- Chart
1970 8 17 12 52.1 155.0 996 0 6 -- Chart
1970 8 17 18 53.0 159.8 994 0 6 -- Chart
1970 8 18 00 53.8 163.3 994 0 6 -- Chart
1970 8 18 06 54.6 166.0 984 0 6 -- Chart
1970 8 18 12 55.3 170.4 982 0 6 -- Chart
1970 8 18 18 54.7 174.0 978 0 6 -- Chart
1970 8 19 00 54.0 178.0 980 0 6 -- Chart
1970 8 19 06 53.5 182.6 980 0 6 -- Chart
Japan Meteorological Agency Best Track Data | Correction Date : 1989-06-01
< Typhoon 197008 1970 Season Typhoon 197010 >

Help